createdAt,value
2022-12-31T00:02:01.621Z,59.04
2022-12-31T00:04:28.069Z,59.08
2022-12-31T00:06:54.434Z,58.74
2022-12-31T00:09:20.904Z,58.64
2022-12-31T00:11:47.432Z,58.88
2022-12-31T00:14:14.475Z,58.87
2022-12-31T00:16:41.933Z,59.05
2022-12-31T00:19:10.948Z,58.98
2022-12-31T00:21:38.536Z,59.08
2022-12-31T00:24:06.243Z,59.43
2022-12-31T00:26:34.435Z,58.84
2022-12-31T00:29:01.956Z,58.96
2022-12-31T00:31:34.802Z,58.90
2022-12-31T00:34:01.901Z,59.01
2022-12-31T00:36:31.241Z,58.86
2022-12-31T00:38:59.223Z,59.10
2022-12-31T00:41:27.075Z,58.86
2022-12-31T00:43:54.009Z,58.93
2022-12-31T00:46:21.499Z,59.23
2022-12-31T00:48:48.490Z,58.98
2022-12-31T00:51:17.827Z,59.29
2022-12-31T00:53:44.841Z,59.02
2022-12-31T00:56:14.274Z,59.29
2022-12-31T00:58:41.194Z,59.12
2022-12-31T01:01:11.210Z,59.29
2022-12-31T01:03:38.072Z,59.32
2022-12-31T01:06:05.007Z,59.29
2022-12-31T01:08:31.546Z,59.18
2022-12-31T01:11:17.978Z,59.24
2022-12-31T01:13:49.516Z,59.20
2022-12-31T01:16:17.158Z,59.31
2022-12-31T01:18:43.560Z,58.90
2022-12-31T01:21:11.563Z,59.09
2022-12-31T01:23:38.525Z,59.33
2022-12-31T01:26:08.500Z,59.79
2022-12-31T01:28:35.333Z,59.68
2022-12-31T01:31:12.619Z,59.21
2022-12-31T01:33:40.008Z,59.21
2022-12-31T01:36:12.486Z,59.19
2022-12-31T01:38:39.870Z,59.57
2022-12-31T01:41:07.191Z,59.55
2022-12-31T01:43:50.529Z,59.40
2022-12-31T01:46:36.153Z,59.45
2022-12-31T01:49:16.890Z,59.65
2022-12-31T01:51:46.839Z,59.77
2022-12-31T01:54:16.977Z,59.57
2022-12-31T01:56:45.299Z,59.49
2022-12-31T01:59:14.511Z,59.68
2022-12-31T02:01:41.013Z,59.65
2022-12-31T02:04:13.294Z,59.63
2022-12-31T02:07:02.133Z,59.81
2022-12-31T02:09:29.489Z,59.85
2022-12-31T02:11:55.854Z,60.09
2022-12-31T02:14:27.018Z,59.91
2022-12-31T02:17:16.911Z,60.07
2022-12-31T02:19:43.275Z,60.26
2022-12-31T02:22:32.310Z,59.82
2022-12-31T02:25:17.314Z,59.92
2022-12-31T02:28:06.060Z,60.08
2022-12-31T02:30:34.580Z,60.17
2022-12-31T02:33:12.482Z,60.16
2022-12-31T02:35:45.104Z,60.09
2022-12-31T02:38:17.022Z,60.18
2022-12-31T02:40:43.667Z,59.92
2022-12-31T02:43:10.084Z,60.06
2022-12-31T02:45:50.538Z,60.03
2022-12-31T02:48:35.290Z,60.09
2022-12-31T02:51:21.530Z,60.02
2022-12-31T02:54:03.647Z,59.96
2022-12-31T02:56:51.805Z,60.08
2022-12-31T02:59:52.645Z,60.25
2022-12-31T03:02:22.838Z,60.53
2022-12-31T03:04:53.560Z,60.39
2022-12-31T03:07:23.183Z,60.47
2022-12-31T03:09:50.423Z,60.50
2022-12-31T03:12:37.020Z,60.27
2022-12-31T03:15:06.664Z,60.23
2022-12-31T03:17:34.200Z,60.19
2022-12-31T03:20:19.564Z,60.01
2022-12-31T03:22:45.967Z,60.13
2022-12-31T03:25:33.982Z,60.35
2022-12-31T03:28:06.599Z,60.39
2022-12-31T03:30:34.461Z,60.13
2022-12-31T03:33:01.044Z,60.35
2022-12-31T03:35:29.602Z,60.14
2022-12-31T03:37:56.601Z,60.72
2022-12-31T03:40:24.831Z,60.67
2022-12-31T03:42:51.679Z,60.49
2022-12-31T03:45:18.245Z,60.40
2022-12-31T03:47:44.950Z,60.26
2022-12-31T03:50:13.548Z,60.87
2022-12-31T03:52:40.346Z,60.60
2022-12-31T03:55:08.179Z,60.44
2022-12-31T03:57:34.817Z,60.58
2022-12-31T04:00:01.273Z,60.74
2022-12-31T04:02:29.280Z,60.42
2022-12-31T04:04:56.062Z,60.45
2022-12-31T04:07:22.568Z,60.61
2022-12-31T04:09:48.965Z,60.57
2022-12-31T04:12:15.517Z,60.76
2022-12-31T04:14:41.907Z,60.60
2022-12-31T04:17:08.250Z,60.66
2022-12-31T04:19:34.777Z,60.71
2022-12-31T04:22:01.151Z,60.87
2022-12-31T04:24:27.697Z,60.77
2022-12-31T04:26:54.195Z,60.74
2022-12-31T04:29:20.682Z,60.61
2022-12-31T04:31:47.157Z,60.94
2022-12-31T04:34:13.824Z,60.51
2022-12-31T04:36:40.282Z,60.78
2022-12-31T04:39:06.653Z,61.02
2022-12-31T04:41:33.092Z,60.89
2022-12-31T04:43:59.984Z,60.83
2022-12-31T04:46:32.435Z,60.87
2022-12-31T04:48:59.138Z,61.05
2022-12-31T04:51:26.695Z,61.08
2022-12-31T04:53:53.431Z,61.35
2022-12-31T04:56:20.371Z,61.13
2022-12-31T04:58:47.284Z,61.12
2022-12-31T05:01:14.297Z,61.02
2022-12-31T05:03:41.272Z,61.08
2022-12-31T05:06:11.985Z,61.28
2022-12-31T05:08:38.546Z,61.11
2022-12-31T05:11:04.963Z,61.13
2022-12-31T05:13:33.494Z,60.96
2022-12-31T05:16:00.954Z,61.04
2022-12-31T05:18:27.478Z,61.02
2022-12-31T05:20:53.871Z,61.00
2022-12-31T05:23:22.620Z,61.19
2022-12-31T05:25:49.614Z,61.05
2022-12-31T05:28:16.940Z,61.35
2022-12-31T05:30:44.375Z,60.84
2022-12-31T05:33:11.184Z,61.20
2022-12-31T05:35:37.761Z,61.31
2022-12-31T05:38:04.157Z,60.89
2022-12-31T05:40:30.519Z,60.88
2022-12-31T05:42:56.928Z,61.19
2022-12-31T05:45:30.137Z,60.86
2022-12-31T05:47:57.768Z,61.50
2022-12-31T05:50:24.161Z,61.30
2022-12-31T05:52:50.622Z,60.89
2022-12-31T05:55:17.124Z,60.85
2022-12-31T05:57:43.525Z,60.87
2022-12-31T06:00:11.180Z,60.80
2022-12-31T06:02:37.660Z,60.72
2022-12-31T06:05:04.543Z,60.65
2022-12-31T06:07:30.913Z,60.83
2022-12-31T06:09:58.457Z,60.81
2022-12-31T06:12:24.807Z,61.00
2022-12-31T06:14:51.252Z,61.03
2022-12-31T06:17:17.734Z,61.35
2022-12-31T06:19:44.171Z,60.91
2022-12-31T06:22:10.537Z,60.99
2022-12-31T06:24:36.905Z,61.04
2022-12-31T06:27:03.334Z,61.04
2022-12-31T06:29:29.844Z,60.81
2022-12-31T06:31:56.194Z,60.52
2022-12-31T06:34:22.763Z,61.12
2022-12-31T06:36:49.395Z,60.87
2022-12-31T06:39:18.897Z,60.90
2022-12-31T06:41:45.362Z,60.85
2022-12-31T06:44:11.962Z,61.05
2022-12-31T06:46:38.420Z,60.96
2022-12-31T06:49:04.919Z,61.54
2022-12-31T06:51:31.473Z,60.65
2022-12-31T06:53:57.945Z,60.79
2022-12-31T06:56:33.848Z,61.46
2022-12-31T06:59:01.350Z,61.03
2022-12-31T07:01:39.218Z,60.94
2022-12-31T07:04:24.566Z,60.94
2022-12-31T07:07:28.675Z,61.15
2022-12-31T07:10:16.499Z,61.08
2022-12-31T07:13:00.569Z,61.35
2022-12-31T07:16:02.667Z,61.22
2022-12-31T07:18:29.034Z,61.10
2022-12-31T07:21:11.204Z,61.10
2022-12-31T07:23:37.876Z,61.30
2022-12-31T07:26:33.032Z,61.10
2022-12-31T07:29:18.745Z,61.17
2022-12-31T07:32:05.653Z,60.85
2022-12-31T07:34:34.989Z,61.59
2022-12-31T07:37:34.493Z,61.35
2022-12-31T07:40:19.604Z,61.34
2022-12-31T07:43:07.325Z,61.09
2022-12-31T07:45:39.807Z,60.86
2022-12-31T07:48:21.029Z,61.12
2022-12-31T07:50:47.726Z,61.54
2022-12-31T07:53:14.450Z,61.51
2022-12-31T07:55:40.889Z,61.38
2022-12-31T07:58:40.605Z,61.54
2022-12-31T08:01:11.662Z,61.41
2022-12-31T08:04:02.513Z,61.43
2022-12-31T08:06:41.009Z,61.26
2022-12-31T08:09:39.147Z,61.23
2022-12-31T08:12:07.556Z,61.57
2022-12-31T08:14:47.960Z,61.35
2022-12-31T08:17:16.471Z,61.37
2022-12-31T08:19:43.453Z,61.30
2022-12-31T08:22:28.415Z,61.17
2022-12-31T08:25:01.953Z,61.25
2022-12-31T08:27:52.825Z,61.04
2022-12-31T08:30:21.565Z,60.88
2022-12-31T08:33:00.289Z,60.88
2022-12-31T08:35:39.115Z,60.88
2022-12-31T08:38:38.153Z,60.65
2022-12-31T08:41:21.539Z,60.74
2022-12-31T08:43:57.971Z,60.76
2022-12-31T08:46:33.423Z,60.88
2022-12-31T08:49:00.106Z,60.88
2022-12-31T08:51:27.526Z,60.49
2022-12-31T08:53:55.257Z,60.53
2022-12-31T08:56:36.157Z,60.35
2022-12-31T08:59:17.877Z,60.20
2022-12-31T09:02:13.617Z,60.42
2022-12-31T09:05:06.767Z,60.05
2022-12-31T09:08:23.401Z,60.18
2022-12-31T09:11:04.284Z,60.06
2022-12-31T09:13:56.183Z,59.96
2022-12-31T09:17:03.179Z,59.99
2022-12-31T09:19:29.608Z,60.02
2022-12-31T09:21:56.322Z,60.12
2022-12-31T09:24:22.992Z,59.73
2022-12-31T09:27:04.521Z,59.77
2022-12-31T09:29:38.862Z,59.52
2022-12-31T09:32:30.838Z,59.25
2022-12-31T09:35:05.001Z,59.27
2022-12-31T09:38:07.993Z,59.44
2022-12-31T09:40:37.647Z,59.39
2022-12-31T09:43:31.355Z,59.26
2022-12-31T09:46:06.888Z,59.19
2022-12-31T09:48:44.931Z,59.01
2022-12-31T09:51:21.765Z,58.94
2022-12-31T09:54:22.410Z,58.92
2022-12-31T09:57:06.343Z,58.65
2022-12-31T10:00:09.835Z,58.89
2022-12-31T10:02:54.812Z,58.62
2022-12-31T10:05:46.861Z,58.58
2022-12-31T10:08:30.573Z,58.21
2022-12-31T10:11:11.372Z,58.33
2022-12-31T10:13:45.122Z,58.12
2022-12-31T10:16:44.562Z,58.01
2022-12-31T10:19:52.445Z,57.98
2022-12-31T10:22:36.830Z,58.52
2022-12-31T10:25:38.463Z,58.57
2022-12-31T10:28:11.793Z,58.31
2022-12-31T10:30:47.918Z,58.11
2022-12-31T10:33:34.344Z,58.31
2022-12-31T10:36:20.247Z,57.84
2022-12-31T10:39:12.884Z,57.72
2022-12-31T10:42:08.071Z,57.74
2022-12-31T10:45:03.055Z,57.45
2022-12-31T10:47:52.767Z,57.50
2022-12-31T10:50:22.066Z,57.44
2022-12-31T10:52:51.443Z,57.30
2022-12-31T10:55:39.335Z,57.03
2022-12-31T10:58:33.874Z,57.16
2022-12-31T11:01:18.630Z,57.32
2022-12-31T11:03:52.470Z,57.02
2022-12-31T11:06:40.628Z,57.06
2022-12-31T11:09:32.751Z,56.97
2022-12-31T11:12:38.623Z,57.09
2022-12-31T11:15:20.642Z,57.21
2022-12-31T11:18:23.302Z,56.87
2022-12-31T11:21:22.824Z,57.29
2022-12-31T11:24:29.127Z,57.02
2022-12-31T11:27:12.138Z,56.85
2022-12-31T11:30:01.351Z,56.87
2022-12-31T11:32:58.483Z,56.97
2022-12-31T11:35:47.152Z,57.07
2022-12-31T11:38:25.025Z,57.14
2022-12-31T11:43:52.299Z,57.45
2022-12-31T11:46:44.809Z,57.26
2022-12-31T11:49:30.269Z,57.23
2022-12-31T11:52:10.002Z,56.99
2022-12-31T11:55:03.574Z,57.11
2022-12-31T11:57:29.907Z,56.94
2022-12-31T12:00:23.478Z,57.14
2022-12-31T12:02:56.092Z,57.10
2022-12-31T12:05:24.519Z,57.25
2022-12-31T12:07:51.896Z,57.28
2022-12-31T12:10:30.453Z,57.21
2022-12-31T12:13:30.335Z,57.21
2022-12-31T12:16:03.074Z,57.05
2022-12-31T12:18:40.660Z,57.21
2022-12-31T12:21:23.930Z,57.04
2022-12-31T12:23:58.699Z,56.88
2022-12-31T12:26:30.114Z,57.03
2022-12-31T12:29:00.848Z,57.08
2022-12-31T12:31:27.462Z,57.15
2022-12-31T12:33:53.882Z,56.87
2022-12-31T12:36:21.944Z,56.81
2022-12-31T12:38:48.597Z,57.16
2022-12-31T12:41:26.460Z,56.55
2022-12-31T12:44:08.521Z,56.98
2022-12-31T12:46:48.274Z,56.97
2022-12-31T12:49:31.412Z,56.60
2022-12-31T12:52:32.097Z,56.88
2022-12-31T12:55:33.403Z,57.04
2022-12-31T12:58:23.739Z,57.18
2022-12-31T13:01:23.906Z,57.22
2022-12-31T13:07:55.956Z,57.23
2022-12-31T13:10:31.869Z,56.93
2022-12-31T13:13:25.278Z,57.16
2022-12-31T13:16:18.232Z,57.09
2022-12-31T13:19:01.498Z,56.78
2022-12-31T13:21:56.594Z,57.24
2022-12-31T13:24:43.634Z,56.94
2022-12-31T13:27:33.762Z,57.10
2022-12-31T13:30:02.797Z,56.87
2022-12-31T13:32:42.998Z,57.03
2022-12-31T13:35:23.453Z,57.37
2022-12-31T13:37:53.269Z,57.41
2022-12-31T13:40:27.403Z,57.16
2022-12-31T13:43:03.336Z,57.01
2022-12-31T13:45:43.480Z,57.54
2022-12-31T13:48:19.171Z,57.20
2022-12-31T13:51:15.195Z,57.42
2022-12-31T13:53:57.205Z,57.30
2022-12-31T13:56:29.517Z,57.26
2022-12-31T13:59:26.320Z,57.05
2022-12-31T14:02:02.101Z,57.32
2022-12-31T14:04:37.180Z,57.39
2022-12-31T14:07:18.043Z,57.47
2022-12-31T14:09:46.393Z,57.10
2022-12-31T14:12:36.866Z,57.26
2022-12-31T14:15:11.523Z,57.38
2022-12-31T14:17:40.538Z,57.24
2022-12-31T14:20:27.177Z,57.08
2022-12-31T14:23:21.829Z,57.26
2022-12-31T14:25:54.683Z,57.25
2022-12-31T14:28:30.972Z,56.98
2022-12-31T14:31:00.416Z,57.80
2022-12-31T14:33:36.735Z,57.57
2022-12-31T14:36:09.949Z,58.04
2022-12-31T14:39:09.912Z,57.77
2022-12-31T14:41:57.887Z,57.70
2022-12-31T14:44:35.014Z,57.46
2022-12-31T14:47:18.701Z,57.64
2022-12-31T14:50:03.636Z,57.50
2022-12-31T14:52:57.769Z,57.49
2022-12-31T14:55:33.536Z,57.75
2022-12-31T14:58:27.014Z,57.83
2022-12-31T15:01:04.802Z,57.69
2022-12-31T15:03:31.227Z,57.80
2022-12-31T15:06:10.439Z,58.01
2022-12-31T15:08:46.633Z,57.85
2022-12-31T15:11:34.660Z,57.72
2022-12-31T15:14:25.668Z,57.67
2022-12-31T15:16:57.124Z,58.03
2022-12-31T15:19:47.007Z,57.96
2022-12-31T15:22:25.631Z,57.94
2022-12-31T15:24:52.407Z,57.83
2022-12-31T15:27:34.999Z,58.06
2022-12-31T15:30:02.103Z,57.90
2022-12-31T15:32:42.462Z,57.73
2022-12-31T15:35:21.380Z,58.01
2022-12-31T15:38:15.107Z,58.35
2022-12-31T15:40:52.897Z,57.88
2022-12-31T15:43:25.647Z,58.36
2022-12-31T15:45:54.913Z,58.11
2022-12-31T15:48:27.084Z,58.31
2022-12-31T15:50:57.949Z,58.18
2022-12-31T15:53:32.313Z,58.11
2022-12-31T15:56:00.449Z,58.31
2022-12-31T15:58:30.983Z,58.28
2022-12-31T16:01:15.504Z,58.63
2022-12-31T16:03:57.894Z,58.51
2022-12-31T16:06:27.384Z,58.37
2022-12-31T16:08:55.492Z,58.70
2022-12-31T16:11:23.370Z,58.60
2022-12-31T16:13:52.611Z,58.41
2022-12-31T16:16:24.919Z,58.85
2022-12-31T16:18:53.096Z,58.34
2022-12-31T16:21:27.300Z,58.58
2022-12-31T16:23:56.473Z,58.61
2022-12-31T16:26:40.445Z,58.99
2022-12-31T16:29:13.376Z,59.08
2022-12-31T16:31:40.601Z,58.78
2022-12-31T16:34:13.811Z,58.88
2022-12-31T16:36:40.444Z,58.81
2022-12-31T16:39:34.719Z,58.92
2022-12-31T16:42:13.319Z,58.76
2022-12-31T16:44:40.758Z,59.12
2022-12-31T16:47:09.881Z,58.78
2022-12-31T16:49:39.400Z,58.94
2022-12-31T16:52:08.672Z,59.19
2022-12-31T16:54:40.613Z,59.25
2022-12-31T16:57:10.795Z,59.27
2022-12-31T16:59:44.717Z,58.86
2022-12-31T17:02:20.404Z,59.17
2022-12-31T17:04:55.957Z,59.22
2022-12-31T17:07:32.020Z,59.06
2022-12-31T17:10:22.062Z,59.17
2022-12-31T17:15:45.222Z,59.27
2022-12-31T17:18:19.934Z,59.23
2022-12-31T17:20:47.202Z,59.20
2022-12-31T17:23:23.517Z,59.17
2022-12-31T17:25:56.977Z,59.61
2022-12-31T17:28:24.922Z,59.48
2022-12-31T17:30:51.523Z,59.27
2022-12-31T17:33:17.843Z,59.23
2022-12-31T17:35:45.757Z,59.29
2022-12-31T17:38:18.395Z,59.41
2022-12-31T17:40:51.208Z,59.31
2022-12-31T17:43:22.219Z,59.31
2022-12-31T17:45:51.439Z,59.45
2022-12-31T17:48:19.804Z,59.50
2022-12-31T17:50:48.323Z,59.23
2022-12-31T17:53:15.278Z,59.27
2022-12-31T17:55:45.343Z,59.32
2022-12-31T17:58:29.907Z,59.25
2022-12-31T18:00:57.796Z,59.27
2022-12-31T18:03:24.449Z,59.18
2022-12-31T18:05:50.890Z,59.34
2022-12-31T18:08:17.320Z,59.47
2022-12-31T18:10:44.715Z,59.27
2022-12-31T18:13:17.379Z,59.23
2022-12-31T18:15:44.116Z,59.39
2022-12-31T18:18:33.654Z,59.38
2022-12-31T18:21:03.012Z,59.24
2022-12-31T18:23:42.449Z,59.25
2022-12-31T18:26:13.507Z,59.25
2022-12-31T18:28:40.056Z,59.30
2022-12-31T18:31:06.667Z,59.26
2022-12-31T18:33:33.290Z,59.34
2022-12-31T18:36:10.222Z,59.46
2022-12-31T18:38:37.169Z,59.41
2022-12-31T18:41:03.913Z,59.20
2022-12-31T18:43:30.442Z,59.62
2022-12-31T18:45:57.267Z,59.38
2022-12-31T18:48:23.657Z,59.44
2022-12-31T18:50:50.598Z,59.28
2022-12-31T18:53:24.165Z,59.25
2022-12-31T18:55:56.219Z,59.05
2022-12-31T18:58:23.490Z,59.38
2022-12-31T19:00:51.168Z,58.99
2022-12-31T19:03:20.973Z,58.92
2022-12-31T19:05:51.837Z,58.85
2022-12-31T19:08:19.350Z,58.96
2022-12-31T19:10:47.205Z,58.86
2022-12-31T19:13:15.320Z,58.83
2022-12-31T19:15:50.582Z,59.01
2022-12-31T19:18:17.102Z,59.00
2022-12-31T19:20:43.615Z,59.20
2022-12-31T19:23:18.849Z,59.08
2022-12-31T19:25:46.987Z,58.79
2022-12-31T19:28:19.061Z,59.04
2022-12-31T19:30:45.655Z,58.64
2022-12-31T19:33:12.663Z,58.69
2022-12-31T19:35:39.909Z,58.74
2022-12-31T19:38:16.810Z,58.66
2022-12-31T19:40:43.585Z,58.40
2022-12-31T19:43:14.632Z,58.29
2022-12-31T19:45:43.153Z,58.60
2022-12-31T19:48:13.090Z,58.76
2022-12-31T19:50:50.438Z,58.29
2022-12-31T19:53:19.734Z,58.53
2022-12-31T19:55:46.413Z,58.15
2022-12-31T19:58:19.549Z,58.26
2022-12-31T20:00:54.506Z,58.12
2022-12-31T20:03:23.879Z,58.34
2022-12-31T20:05:50.318Z,58.19
2022-12-31T20:08:17.031Z,58.15
2022-12-31T20:10:44.068Z,57.81
2022-12-31T20:13:10.519Z,57.73
2022-12-31T20:15:40.435Z,57.68
2022-12-31T20:18:06.849Z,57.70
2022-12-31T20:20:33.290Z,57.72
2022-12-31T20:22:59.778Z,57.92
2022-12-31T20:25:26.270Z,57.89
2022-12-31T20:27:55.946Z,57.38
2022-12-31T20:30:22.987Z,57.32
2022-12-31T20:32:52.062Z,57.51
2022-12-31T20:35:19.377Z,57.80
2022-12-31T20:37:46.099Z,57.98
2022-12-31T20:40:13.122Z,57.70
2022-12-31T20:42:41.886Z,57.32
2022-12-31T20:45:10.504Z,57.43
2022-12-31T20:47:37.324Z,57.66
2022-12-31T20:50:12.669Z,57.34
2022-12-31T20:52:39.474Z,57.36
2022-12-31T20:55:06.467Z,57.10
2022-12-31T20:57:34.056Z,57.15
2022-12-31T21:00:04.245Z,57.40
2022-12-31T21:02:41.312Z,57.16
2022-12-31T21:05:09.488Z,57.25
2022-12-31T21:07:36.006Z,56.84
2022-12-31T21:10:02.398Z,56.88
2022-12-31T21:12:43.988Z,57.31
2022-12-31T21:15:12.406Z,56.77
2022-12-31T21:17:39.000Z,56.65
2022-12-31T21:20:06.042Z,57.05
2022-12-31T21:22:33.668Z,56.87
2022-12-31T21:25:04.546Z,56.69
2022-12-31T21:27:31.704Z,56.60
2022-12-31T21:32:44.635Z,57.07
2022-12-31T21:38:01.873Z,56.83
2022-12-31T21:40:28.749Z,57.00
2022-12-31T21:42:55.121Z,56.98
2022-12-31T21:45:21.638Z,56.85
2022-12-31T21:48:06.772Z,56.97
2022-12-31T21:50:33.827Z,56.82
2022-12-31T21:53:00.242Z,56.93
2022-12-31T21:55:45.275Z,56.80
2022-12-31T21:58:28.148Z,56.71
2022-12-31T22:07:23.147Z,57.10
2022-12-31T22:09:49.561Z,56.83
2022-12-31T22:12:16.206Z,56.71
2022-12-31T22:15:15.937Z,56.60
2022-12-31T22:20:43.712Z,56.88
2022-12-31T22:23:38.666Z,56.73
2022-12-31T22:26:06.876Z,56.55
2022-12-31T22:28:43.735Z,56.87
2022-12-31T22:31:16.222Z,56.92
2022-12-31T22:33:43.710Z,56.32
2022-12-31T22:36:15.870Z,56.63
2022-12-31T22:38:42.888Z,56.42
2022-12-31T22:41:18.870Z,56.51
2022-12-31T22:43:48.448Z,56.66
2022-12-31T22:46:26.693Z,56.55
2022-12-31T22:48:56.787Z,56.60
2022-12-31T22:51:23.240Z,56.73
2022-12-31T22:53:49.688Z,56.36
2022-12-31T22:56:18.255Z,56.64
2022-12-31T22:58:45.520Z,56.44
2022-12-31T23:01:23.108Z,56.66
2022-12-31T23:03:51.811Z,56.54
2022-12-31T23:06:19.072Z,56.24
2022-12-31T23:09:05.686Z,56.40
2022-12-31T23:11:33.576Z,56.43
2022-12-31T23:14:18.838Z,56.30
2022-12-31T23:17:30.965Z,56.28
2022-12-31T23:20:09.319Z,56.34
2022-12-31T23:22:54.087Z,56.29
2022-12-31T23:25:21.094Z,56.19
2022-12-31T23:27:47.784Z,56.57
2022-12-31T23:30:14.252Z,56.13
2022-12-31T23:32:40.682Z,56.59
2022-12-31T23:35:09.961Z,56.31
2022-12-31T23:37:36.874Z,56.19
2022-12-31T23:40:03.645Z,56.13
2022-12-31T23:42:30.021Z,55.98
2022-12-31T23:44:56.348Z,56.22
2022-12-31T23:47:22.802Z,56.02
2022-12-31T23:49:49.202Z,56.14
2022-12-31T23:52:15.710Z,56.16
2022-12-31T23:54:42.070Z,56.15
2022-12-31T23:57:08.551Z,55.90
2022-12-31T23:59:34.911Z,56.45
